createdAt,value
2017-07-01T00:01:03.085Z,0
2017-07-01T00:02:12.295Z,0
2017-07-01T00:03:21.808Z,0
2017-07-01T00:04:31.024Z,0
2017-07-01T00:05:39.913Z,0
2017-07-01T00:06:49.132Z,0
2017-07-01T00:07:58.022Z,0
2017-07-01T00:09:07.767Z,0
2017-07-01T00:10:16.658Z,0
2017-07-01T00:11:25.872Z,0
2017-07-01T00:12:34.762Z,0
2017-07-01T00:13:43.973Z,0
2017-07-01T00:14:52.913Z,0
2017-07-01T00:16:01.803Z,0
2017-07-01T00:17:10.709Z,0
2017-07-01T00:18:19.920Z,0
2017-07-01T00:19:29.144Z,0
2017-07-01T00:20:38.285Z,0
2017-07-01T00:21:47.503Z,0
2017-07-01T00:22:56.391Z,0
2017-07-01T00:24:05.285Z,0
2017-07-01T00:25:14.175Z,0
2017-07-01T00:26:23.538Z,0
2017-07-01T00:27:32.749Z,0
2017-07-01T00:28:41.981Z,0
2017-07-01T00:29:50.871Z,0
2017-07-01T00:31:00.081Z,0
2017-07-01T00:32:09.695Z,0
2017-07-01T00:33:19.240Z,0
2017-07-01T00:34:28.130Z,0
2017-07-01T00:35:37.023Z,0
2017-07-01T00:36:45.909Z,0
2017-07-01T00:37:55.324Z,0
2017-07-01T00:39:04.210Z,0
2017-07-01T00:40:13.746Z,0
2017-07-01T00:41:22.635Z,0
2017-07-01T00:42:31.548Z,0
2017-07-01T00:43:40.591Z,0
2017-07-01T00:44:49.803Z,0
2017-07-01T00:45:58.690Z,0
2017-07-01T00:47:07.654Z,0
2017-07-01T00:48:16.867Z,0
2017-07-01T00:49:26.087Z,0
2017-07-01T00:50:35.302Z,0
2017-07-01T00:51:44.530Z,0
2017-07-01T00:52:54.067Z,0
2017-07-01T00:54:03.615Z,0
2017-07-01T00:55:12.878Z,0
2017-07-01T00:56:21.770Z,0
2017-07-01T00:57:30.981Z,0
2017-07-01T00:58:40.198Z,0
2017-07-01T00:59:49.736Z,0
2017-07-01T01:00:58.677Z,0
2017-07-01T01:02:07.568Z,0
2017-07-01T01:03:16.459Z,0
2017-07-01T01:04:25.675Z,0
2017-07-01T01:05:34.891Z,0
2017-07-01T01:06:44.113Z,0
2017-07-01T01:07:53.002Z,0
2017-07-01T01:09:01.897Z,0
2017-07-01T01:10:10.782Z,0
2017-07-01T01:11:19.668Z,0
2017-07-01T01:12:28.706Z,0
2017-07-01T01:13:37.921Z,0
2017-07-01T01:14:47.146Z,0
2017-07-01T01:15:56.034Z,0
2017-07-01T01:17:04.927Z,0
2017-07-01T01:18:13.914Z,0
2017-07-01T01:19:23.130Z,0
2017-07-01T01:20:32.341Z,0
2017-07-01T01:21:41.876Z,0
2017-07-01T01:22:50.766Z,0
2017-07-01T01:24:00.030Z,0
2017-07-01T01:25:08.924Z,0
2017-07-01T01:26:18.137Z,0
2017-07-01T01:27:27.031Z,0
2017-07-01T01:28:35.919Z,0
2017-07-01T01:29:45.185Z,0
2017-07-01T01:30:54.724Z,0
2017-07-01T01:32:03.616Z,0
2017-07-01T01:33:12.829Z,0
2017-07-01T01:34:21.720Z,0
2017-07-01T01:35:31.133Z,0
2017-07-01T01:36:40.343Z,0
2017-07-01T01:37:49.554Z,0
2017-07-01T01:38:58.780Z,0
2017-07-01T01:40:07.666Z,0
2017-07-01T01:41:16.769Z,0
2017-07-01T01:42:25.656Z,0
2017-07-01T01:43:34.542Z,0
2017-07-01T01:44:43.435Z,0
2017-07-01T01:45:52.321Z,0
2017-07-01T01:47:01.260Z,0
2017-07-01T01:48:10.147Z,0
2017-07-01T01:49:19.035Z,0
2017-07-01T01:50:27.935Z,0
2017-07-01T01:51:36.825Z,0
2017-07-01T01:52:46.114Z,0
2017-07-01T01:53:55.001Z,0
2017-07-01T01:55:04.544Z,0
2017-07-01T01:56:13.434Z,0
2017-07-01T01:57:22.970Z,0
2017-07-01T01:58:32.436Z,0
2017-07-01T01:59:41.652Z,0
2017-07-01T02:00:50.538Z,0
2017-07-01T02:01:59.434Z,0
2017-07-01T02:03:08.321Z,0
2017-07-01T02:04:18.010Z,0
2017-07-01T02:05:27.550Z,0
2017-07-01T02:06:36.436Z,0
2017-07-01T02:07:45.649Z,0
2017-07-01T02:08:55.567Z,0
2017-07-01T02:10:05.261Z,0
2017-07-01T02:11:14.145Z,0
2017-07-01T02:12:23.036Z,0
2017-07-01T02:13:31.930Z,0
2017-07-01T02:14:41.141Z,0
2017-07-01T02:15:50.338Z,0
2017-07-01T02:16:59.230Z,0
2017-07-01T02:18:08.445Z,0
2017-07-01T02:19:17.337Z,0
2017-07-01T02:20:26.228Z,0
2017-07-01T02:21:35.775Z,0
2017-07-01T02:22:44.663Z,0
2017-07-01T02:23:53.558Z,0
2017-07-01T02:25:02.514Z,0
2017-07-01T02:26:11.401Z,0
2017-07-01T02:27:20.724Z,0
2017-07-01T02:28:29.941Z,0
2017-07-01T02:29:38.872Z,0
2017-07-01T02:30:47.770Z,0
2017-07-01T02:31:56.660Z,0
2017-07-01T02:33:06.028Z,0
2017-07-01T02:34:15.243Z,0
2017-07-01T02:35:24.454Z,0
2017-07-01T02:36:33.668Z,0
2017-07-01T02:37:42.879Z,0
2017-07-01T02:38:52.289Z,0
2017-07-01T02:40:01.503Z,0
2017-07-01T02:41:10.720Z,0
2017-07-01T02:42:19.931Z,0
2017-07-01T02:43:29.145Z,0
2017-07-01T02:44:38.131Z,0
2017-07-01T02:45:47.346Z,0
2017-07-01T02:46:56.236Z,0
2017-07-01T02:48:06.098Z,0
2017-07-01T02:49:15.969Z,0
2017-07-01T02:50:25.382Z,0
2017-07-01T02:51:34.274Z,0
2017-07-01T02:52:43.161Z,0
2017-07-01T02:53:52.703Z,0
2017-07-01T02:55:01.923Z,0
2017-07-01T02:56:10.961Z,0
2017-07-01T02:57:19.851Z,0
2017-07-01T02:58:28.747Z,0
2017-07-01T02:59:37.958Z,0
2017-07-01T03:00:46.847Z,0
2017-07-01T03:01:56.787Z,0
2017-07-01T03:03:05.677Z,0
2017-07-01T03:04:15.217Z,0
2017-07-01T03:05:24.434Z,0
2017-07-01T03:06:33.323Z,0
2017-07-01T03:07:42.789Z,0
2017-07-01T03:08:52.013Z,5
2017-07-01T03:10:00.903Z,5
2017-07-01T03:11:09.791Z,5
2017-07-01T03:12:19.014Z,5
2017-07-01T03:13:28.384Z,0
2017-07-01T03:14:37.601Z,0
2017-07-01T03:15:47.138Z,0
2017-07-01T03:16:56.030Z,0
2017-07-01T03:18:05.241Z,0
2017-07-01T03:19:14.236Z,0
2017-07-01T03:20:23.126Z,0
2017-07-01T03:21:32.015Z,0
2017-07-01T03:22:40.905Z,0
2017-07-01T03:23:50.444Z,0
2017-07-01T03:24:59.663Z,5
2017-07-01T03:26:08.552Z,5
2017-07-01T03:27:17.440Z,5
2017-07-01T03:28:26.331Z,5
2017-07-01T03:29:35.223Z,5
2017-07-01T03:30:44.539Z,5
2017-07-01T03:31:54.081Z,5
2017-07-01T03:33:03.948Z,5
2017-07-01T03:34:13.161Z,5
2017-07-01T03:35:22.372Z,5
2017-07-01T03:36:31.308Z,5
2017-07-01T03:37:40.893Z,5
2017-07-01T03:38:50.114Z,10
2017-07-01T03:39:59.975Z,10
2017-07-01T03:41:09.576Z,5
2017-07-01T03:42:18.662Z,5
2017-07-01T03:43:27.872Z,5
2017-07-01T03:44:36.804Z,5
2017-07-01T03:45:45.698Z,5
2017-07-01T03:46:54.913Z,5
2017-07-01T03:48:03.849Z,10
2017-07-01T03:49:12.743Z,10
2017-07-01T03:50:22.283Z,10
2017-07-01T03:51:31.493Z,10
2017-07-01T03:52:40.385Z,10
2017-07-01T03:53:49.804Z,5
2017-07-01T03:54:59.019Z,10
2017-07-01T03:56:07.907Z,5
2017-07-01T03:57:17.123Z,5
2017-07-01T03:58:26.009Z,5
2017-07-01T03:59:35.272Z,5
2017-07-01T04:00:44.808Z,5
2017-07-01T04:01:53.697Z,5
2017-07-01T04:03:02.581Z,5
2017-07-01T04:04:11.476Z,5
2017-07-01T04:05:20.514Z,5
2017-07-01T04:06:29.725Z,5
2017-07-01T04:07:38.938Z,10
2017-07-01T04:08:47.820Z,15
2017-07-01T04:09:56.712Z,15
2017-07-01T04:11:05.698Z,20
2017-07-01T04:12:14.911Z,20
2017-07-01T04:13:23.799Z,20
2017-07-01T04:14:33.337Z,20
2017-07-01T04:15:42.559Z,20
2017-07-01T04:16:51.923Z,20
2017-07-01T04:18:01.137Z,25
2017-07-01T04:19:10.353Z,25
2017-07-01T04:20:19.564Z,20
2017-07-01T04:21:28.466Z,25
2017-07-01T04:22:37.728Z,25
2017-07-01T04:23:47.267Z,25
2017-07-01T04:24:56.483Z,30
2017-07-01T04:26:05.699Z,30
2017-07-01T04:27:14.588Z,30
2017-07-01T04:28:24.004Z,35
2017-07-01T04:29:34.215Z,50
2017-07-01T04:30:43.106Z,65
2017-07-01T04:31:52.319Z,80
2017-07-01T04:33:01.209Z,80
2017-07-01T04:34:10.522Z,85
2017-07-01T04:35:20.063Z,105
2017-07-01T04:36:29.615Z,130
2017-07-01T04:37:39.155Z,140
2017-07-01T04:38:48.386Z,140
2017-07-01T04:39:57.599Z,130
2017-07-01T04:41:06.487Z,120
2017-07-01T04:42:15.706Z,115
2017-07-01T04:43:25.258Z,115
2017-07-01T04:44:34.796Z,110
2017-07-01T04:45:43.787Z,110
2017-07-01T04:46:53.325Z,110
2017-07-01T04:48:02.541Z,110
2017-07-01T04:49:12.083Z,135
2017-07-01T04:50:21.303Z,150
2017-07-01T04:51:30.663Z,160
2017-07-01T04:52:39.880Z,170
2017-07-01T04:53:49.093Z,165
2017-07-01T04:54:58.314Z,170
2017-07-01T04:56:07.527Z,180
2017-07-01T04:57:16.418Z,175
2017-07-01T04:58:25.958Z,170
2017-07-01T04:59:35.176Z,175
2017-07-01T05:00:44.065Z,170
2017-07-01T05:01:52.958Z,165
2017-07-01T05:03:01.899Z,170
2017-07-01T05:04:11.114Z,170
2017-07-01T05:05:20.001Z,170
2017-07-01T05:06:28.897Z,155
2017-07-01T05:07:38.437Z,180
2017-07-01T05:08:48.129Z,190
2017-07-01T05:09:57.021Z,175
2017-07-01T05:11:05.953Z,165
2017-07-01T05:12:15.168Z,170
2017-07-01T05:13:24.064Z,160
2017-07-01T05:14:32.952Z,170
2017-07-01T05:15:42.169Z,150
2017-07-01T05:16:51.381Z,160
2017-07-01T05:18:00.270Z,155
2017-07-01T05:19:09.488Z,175
2017-07-01T05:20:18.907Z,155
2017-07-01T05:21:28.125Z,170
2017-07-01T05:22:37.016Z,160
2017-07-01T05:23:46.560Z,165
2017-07-01T05:24:55.488Z,200
2017-07-01T05:26:04.848Z,200
2017-07-01T05:27:14.063Z,210
2017-07-01T05:28:22.950Z,220
2017-07-01T05:29:31.844Z,215
2017-07-01T05:30:41.055Z,205
2017-07-01T05:31:50.046Z,170
2017-07-01T05:32:59.263Z,225
2017-07-01T05:34:08.160Z,225
2017-07-01T05:35:17.050Z,240
2017-07-01T05:36:26.267Z,230
2017-07-01T05:37:35.158Z,235
2017-07-01T05:38:44.045Z,230
2017-07-01T05:39:52.936Z,225
2017-07-01T05:41:02.149Z,260
2017-07-01T05:42:11.037Z,225
2017-07-01T05:43:20.400Z,185
2017-07-01T05:44:30.271Z,160
2017-07-01T05:45:39.163Z,140
2017-07-01T05:46:48.381Z,120
2017-07-01T05:47:57.275Z,115
2017-07-01T05:49:06.271Z,125
2017-07-01T05:50:15.810Z,145
2017-07-01T05:51:24.700Z,145
2017-07-01T05:52:33.915Z,125
2017-07-01T05:53:43.130Z,160
2017-07-01T05:54:52.122Z,180
2017-07-01T05:56:01.013Z,195
2017-07-01T05:57:10.565Z,190
2017-07-01T05:58:19.780Z,185
2017-07-01T05:59:28.995Z,190
2017-07-01T06:00:38.316Z,190
2017-07-01T06:01:47.204Z,185
2017-07-01T06:02:56.423Z,180
2017-07-01T06:04:05.635Z,160
2017-07-01T06:05:15.177Z,130
2017-07-01T06:06:24.488Z,140
2017-07-01T06:07:33.396Z,120
2017-07-01T06:08:42.287Z,95
2017-07-01T06:09:51.505Z,85
2017-07-01T06:11:00.715Z,105
2017-07-01T06:12:09.756Z,100
2017-07-01T06:13:18.648Z,105
2017-07-01T06:14:27.865Z,125
2017-07-01T06:15:37.081Z,115
2017-07-01T06:16:45.972Z,90
2017-07-01T06:17:55.237Z,85
2017-07-01T06:19:04.127Z,80
2017-07-01T06:20:13.348Z,80
2017-07-01T06:21:22.235Z,80
2017-07-01T06:22:31.452Z,85
2017-07-01T06:23:40.819Z,90
2017-07-01T06:24:50.037Z,90
2017-07-01T06:25:59.257Z,125
2017-07-01T06:27:08.472Z,150
2017-07-01T06:28:17.364Z,190
2017-07-01T06:29:27.865Z,185
2017-07-01T06:30:37.411Z,165
2017-07-01T06:31:46.299Z,160
2017-07-01T06:32:55.520Z,180
2017-07-01T06:34:04.412Z,160
2017-07-01T06:35:13.357Z,130
2017-07-01T06:36:22.291Z,105
2017-07-01T06:37:31.513Z,150
2017-07-01T06:38:41.058Z,170
2017-07-01T06:39:49.947Z,135
2017-07-01T06:40:59.636Z,120
2017-07-01T06:42:08.533Z,115
2017-07-01T06:43:17.755Z,120
2017-07-01T06:44:26.971Z,175
2017-07-01T06:45:36.516Z,180
2017-07-01T06:46:45.458Z,225
2017-07-01T06:47:54.998Z,255
2017-07-01T06:49:03.891Z,245
2017-07-01T06:50:13.125Z,270
2017-07-01T06:51:22.017Z,250
2017-07-01T06:52:31.559Z,200
2017-07-01T06:53:40.771Z,170
2017-07-01T06:54:49.996Z,130
2017-07-01T06:55:58.885Z,135
2017-07-01T06:57:08.122Z,180
2017-07-01T06:58:17.668Z,190
2017-07-01T06:59:26.559Z,220
2017-07-01T07:00:35.779Z,170
2017-07-01T07:01:44.993Z,165
2017-07-01T07:02:53.888Z,115
2017-07-01T07:04:02.983Z,95
2017-07-01T07:05:12.198Z,115
2017-07-01T07:06:21.087Z,155
2017-07-01T07:07:29.979Z,120
2017-07-01T07:08:38.882Z,170
2017-07-01T07:09:48.250Z,175
2017-07-01T07:10:57.148Z,180
2017-07-01T07:12:06.039Z,145
2017-07-01T07:13:15.256Z,115
2017-07-01T07:14:24.148Z,140
2017-07-01T07:15:33.742Z,155
2017-07-01T07:16:42.629Z,135
2017-07-01T07:17:51.521Z,110
2017-07-01T07:19:00.733Z,100
2017-07-01T07:20:09.625Z,100
2017-07-01T07:21:18.612Z,100
2017-07-01T07:22:27.502Z,130
2017-07-01T07:23:36.723Z,145
2017-07-01T07:24:45.621Z,155
2017-07-01T07:25:54.515Z,130
2017-07-01T07:27:03.404Z,120
2017-07-01T07:28:12.300Z,115
2017-07-01T07:29:21.515Z,105
2017-07-01T07:30:30.407Z,105
2017-07-01T07:31:39.300Z,115
2017-07-01T07:32:48.819Z,120
2017-07-01T07:33:57.708Z,135
2017-07-01T07:35:06.606Z,150
2017-07-01T07:36:15.839Z,150
2017-07-01T07:37:24.730Z,145
2017-07-01T07:38:34.046Z,140
2017-07-01T07:39:42.938Z,150
2017-07-01T07:40:51.825Z,180
2017-07-01T07:42:01.043Z,200
2017-07-01T07:43:09.934Z,175
2017-07-01T07:44:19.334Z,230
2017-07-01T07:45:28.550Z,195
2017-07-01T07:46:37.443Z,215
2017-07-01T07:47:46.658Z,235
2017-07-01T07:48:55.879Z,265
2017-07-01T07:50:05.145Z,280
2017-07-01T07:51:14.694Z,285
2017-07-01T07:52:24.235Z,275
2017-07-01T07:53:33.450Z,300
2017-07-01T07:54:42.341Z,290
2017-07-01T07:55:51.809Z,285
2017-07-01T07:57:00.705Z,310
2017-07-01T07:58:09.603Z,245
2017-07-01T07:59:19.145Z,265
2017-07-01T08:00:28.684Z,275
2017-07-01T08:01:37.779Z,290
2017-07-01T08:02:46.994Z,290
2017-07-01T08:03:55.899Z,315
2017-07-01T08:05:05.118Z,325
2017-07-01T08:06:14.008Z,355
2017-07-01T08:07:23.000Z,280
2017-07-01T08:08:31.890Z,235
2017-07-01T08:09:41.109Z,240
2017-07-01T08:10:50.325Z,205
2017-07-01T08:11:59.220Z,210
2017-07-01T08:13:08.588Z,240
2017-07-01T08:14:17.479Z,260
2017-07-01T08:15:27.024Z,255
2017-07-01T08:16:36.237Z,205
2017-07-01T08:17:45.133Z,190
2017-07-01T08:18:54.182Z,165
2017-07-01T08:20:04.046Z,175
2017-07-01T08:21:13.590Z,185
2017-07-01T08:22:22.807Z,200
2017-07-01T08:23:32.029Z,230
2017-07-01T08:24:41.409Z,250
2017-07-01T08:25:50.625Z,290
2017-07-01T08:27:00.163Z,290
2017-07-01T08:28:09.053Z,300
2017-07-01T08:29:18.269Z,305
2017-07-01T08:30:27.584Z,300
2017-07-01T08:31:36.478Z,280
2017-07-01T08:32:45.378Z,285
2017-07-01T08:33:54.606Z,250
2017-07-01T08:35:04.479Z,270
2017-07-01T08:36:13.669Z,210
2017-07-01T08:37:22.885Z,195
2017-07-01T08:38:32.103Z,175
2017-07-01T08:39:41.322Z,185
2017-07-01T08:40:50.213Z,165
2017-07-01T08:41:59.203Z,180
2017-07-01T08:43:08.094Z,170
2017-07-01T08:44:16.984Z,175
2017-07-01T08:45:25.873Z,170
2017-07-01T08:46:34.763Z,180
2017-07-01T08:47:43.805Z,175
2017-07-01T08:48:52.733Z,170
2017-07-01T08:50:01.949Z,170
2017-07-01T08:51:10.837Z,165
2017-07-01T08:52:19.730Z,180
2017-07-01T08:53:28.622Z,170
2017-07-01T08:54:37.516Z,160
2017-07-01T08:55:47.063Z,155
2017-07-01T08:56:55.959Z,150
2017-07-01T08:58:04.852Z,150
2017-07-01T08:59:13.896Z,175
2017-07-01T09:00:23.110Z,165
2017-07-01T09:01:31.999Z,155
2017-07-01T09:02:40.887Z,145
2017-07-01T09:03:49.773Z,155
2017-07-01T09:04:58.761Z,175
2017-07-01T09:06:08.044Z,175
2017-07-01T09:07:17.592Z,200
2017-07-01T09:08:26.482Z,230
2017-07-01T09:09:35.371Z,220
2017-07-01T09:10:44.467Z,185
2017-07-01T09:11:53.354Z,185
2017-07-01T09:13:02.241Z,190
2017-07-01T09:14:11.132Z,195
2017-07-01T09:15:20.673Z,200
2017-07-01T09:16:29.770Z,180
2017-07-01T09:17:38.989Z,175
2017-07-01T09:18:47.885Z,140
2017-07-01T09:19:57.099Z,175
2017-07-01T09:21:05.991Z,165
2017-07-01T09:22:15.136Z,175
2017-07-01T09:23:24.026Z,155
2017-07-01T09:24:33.248Z,155
2017-07-01T09:25:42.139Z,160
2017-07-01T09:26:51.030Z,180
2017-07-01T09:28:00.299Z,170
2017-07-01T09:29:09.190Z,170
2017-07-01T09:30:18.081Z,175
2017-07-01T09:31:26.972Z,170
2017-07-01T09:32:36.195Z,180
2017-07-01T09:33:45.513Z,180
2017-07-01T09:34:54.734Z,145
2017-07-01T09:36:03.622Z,130
2017-07-01T09:37:12.515Z,140
2017-07-01T09:38:21.730Z,145
2017-07-01T09:39:30.816Z,145
2017-07-01T09:40:39.754Z,130
2017-07-01T09:41:49.296Z,125
2017-07-01T09:42:58.226Z,135
2017-07-01T09:44:07.443Z,140
2017-07-01T09:45:16.334Z,120
2017-07-01T09:46:25.222Z,120
2017-07-01T09:47:34.111Z,115
2017-07-01T09:48:43.004Z,115
2017-07-01T09:49:51.895Z,125
2017-07-01T09:51:01.585Z,150
2017-07-01T09:52:11.450Z,170
2017-07-01T09:53:20.345Z,180
2017-07-01T09:54:29.243Z,200
2017-07-01T09:55:38.135Z,205
2017-07-01T09:56:47.503Z,210
2017-07-01T09:57:56.389Z,245
2017-07-01T09:59:05.607Z,235
2017-07-01T10:00:15.158Z,250
2017-07-01T10:01:24.373Z,260
2017-07-01T10:02:33.314Z,260
2017-07-01T10:03:42.532Z,305
2017-07-01T10:04:51.760Z,250
2017-07-01T10:06:00.647Z,215
2017-07-01T10:07:09.871Z,265
2017-07-01T10:08:18.812Z,340
2017-07-01T10:09:28.031Z,360
2017-07-01T10:10:36.926Z,365
2017-07-01T10:11:45.817Z,365
2017-07-01T10:12:54.707Z,380
2017-07-01T10:14:03.696Z,380
2017-07-01T10:15:12.585Z,380
2017-07-01T10:16:21.475Z,400
2017-07-01T10:17:30.697Z,415
2017-07-01T10:18:39.918Z,415
2017-07-01T10:19:49.109Z,425
2017-07-01T10:20:58.002Z,445
2017-07-01T10:22:07.228Z,460
2017-07-01T10:23:16.449Z,475
2017-07-01T10:24:25.997Z,510
2017-07-01T10:25:35.270Z,485
2017-07-01T10:26:44.159Z,505
2017-07-01T10:27:53.054Z,535
2017-07-01T10:29:02.274Z,550
2017-07-01T10:30:11.812Z,595
2017-07-01T10:31:20.855Z,595
2017-07-01T10:32:29.750Z,600
2017-07-01T10:33:39.300Z,595
2017-07-01T10:34:48.519Z,535
2017-07-01T10:35:57.739Z,445
2017-07-01T10:37:06.634Z,345
2017-07-01T10:38:15.540Z,335
2017-07-01T10:39:24.755Z,315
2017-07-01T10:40:33.967Z,295
2017-07-01T10:41:42.861Z,300
2017-07-01T10:42:52.551Z,230
2017-07-01T10:44:01.766Z,185
2017-07-01T10:45:10.983Z,170
2017-07-01T10:46:19.874Z,170
2017-07-01T10:47:29.095Z,160
2017-07-01T10:48:38.467Z,210
2017-07-01T10:49:47.692Z,310
2017-07-01T10:50:56.585Z,325
2017-07-01T10:52:05.808Z,365
2017-07-01T10:53:14.703Z,395
2017-07-01T10:54:23.950Z,395
2017-07-01T10:55:33.165Z,435
2017-07-01T10:56:42.055Z,390
2017-07-01T10:57:51.616Z,370
2017-07-01T10:59:00.508Z,380
2017-07-01T11:00:09.450Z,370
2017-07-01T11:01:18.346Z,350
2017-07-01T11:02:27.561Z,335
2017-07-01T11:03:36.465Z,345
2017-07-01T11:04:45.683Z,400
2017-07-01T11:05:54.574Z,465
2017-07-01T11:07:03.799Z,525
2017-07-01T11:08:13.022Z,570
2017-07-01T11:09:21.945Z,535
2017-07-01T11:10:30.837Z,505
2017-07-01T11:11:40.706Z,480
2017-07-01T11:12:49.919Z,395
2017-07-01T11:13:59.137Z,275
2017-07-01T11:15:08.681Z,225
2017-07-01T11:16:17.575Z,170
2017-07-01T11:17:26.519Z,165
2017-07-01T11:18:35.737Z,240
2017-07-01T11:19:44.629Z,135
2017-07-01T11:20:53.846Z,105
2017-07-01T11:22:02.738Z,145
2017-07-01T11:23:12.005Z,200
2017-07-01T11:24:20.941Z,215
2017-07-01T11:25:30.157Z,225
2017-07-01T11:26:39.053Z,210
2017-07-01T11:27:48.272Z,255
2017-07-01T11:28:57.739Z,260
2017-07-01T11:30:06.968Z,250
2017-07-01T11:31:15.860Z,345
2017-07-01T11:32:24.754Z,515
2017-07-01T11:33:33.645Z,555
2017-07-01T11:34:43.342Z,615
2017-07-01T11:35:52.558Z,705
2017-07-01T11:37:01.773Z,710
2017-07-01T11:38:10.711Z,605
2017-07-01T11:39:19.603Z,465
2017-07-01T11:40:29.195Z,350
2017-07-01T11:41:38.089Z,300
2017-07-01T11:42:47.305Z,245
2017-07-01T11:43:56.195Z,385
2017-07-01T11:45:05.412Z,360
2017-07-01T11:46:14.628Z,390
2017-07-01T11:47:24.169Z,315
2017-07-01T11:48:33.068Z,430
2017-07-01T11:49:42.282Z,465
2017-07-01T11:50:51.173Z,450
2017-07-01T11:52:00.494Z,315
2017-07-01T11:53:09.710Z,325
2017-07-01T11:54:18.923Z,455
2017-07-01T11:55:28.481Z,410
2017-07-01T11:56:37.373Z,400
2017-07-01T11:57:46.742Z,380
2017-07-01T11:58:55.636Z,250
2017-07-01T12:00:04.855Z,300
2017-07-01T12:01:13.745Z,385
2017-07-01T12:02:22.637Z,420
2017-07-01T12:03:31.579Z,445
2017-07-01T12:04:41.118Z,385
2017-07-01T12:05:50.663Z,415
2017-07-01T12:06:59.582Z,450
2017-07-01T12:08:08.805Z,445
2017-07-01T12:09:17.851Z,410
2017-07-01T12:10:26.747Z,395
2017-07-01T12:11:35.683Z,330
2017-07-01T12:12:45.239Z,280
2017-07-01T12:13:54.470Z,230
2017-07-01T12:15:03.392Z,215
2017-07-01T12:16:12.611Z,185
2017-07-01T12:17:21.828Z,185
2017-07-01T12:18:30.723Z,240
2017-07-01T12:19:39.613Z,290
2017-07-01T12:20:48.985Z,340
2017-07-01T12:21:57.875Z,315
2017-07-01T12:23:07.421Z,280
2017-07-01T12:24:16.642Z,235
2017-07-01T12:25:26.508Z,275
2017-07-01T12:26:35.906Z,280
2017-07-01T12:27:44.809Z,295
2017-07-01T12:28:53.700Z,460
2017-07-01T12:30:02.601Z,415
2017-07-01T12:31:11.494Z,390
2017-07-01T12:32:20.534Z,410
2017-07-01T12:33:29.428Z,390
2017-07-01T12:34:38.647Z,460
2017-07-01T12:35:47.542Z,395
2017-07-01T12:36:56.431Z,325
2017-07-01T12:38:05.441Z,455
2017-07-01T12:39:14.332Z,470
2017-07-01T12:40:23.254Z,555
2017-07-01T12:41:32.152Z,730
2017-07-01T12:42:41.050Z,695
2017-07-01T12:43:50.316Z,540
2017-07-01T12:44:59.529Z,405
2017-07-01T12:46:08.761Z,475
2017-07-01T12:47:17.652Z,420
2017-07-01T12:48:26.921Z,525
2017-07-01T12:49:35.814Z,640
2017-07-01T12:50:44.705Z,635
2017-07-01T12:51:53.644Z,525
2017-07-01T12:53:03.186Z,480
2017-07-01T12:54:12.402Z,510
2017-07-01T12:55:21.692Z,465
2017-07-01T12:56:30.909Z,435
2017-07-01T12:57:40.124Z,330
2017-07-01T12:58:49.340Z,390
2017-07-01T12:59:58.230Z,285
2017-07-01T13:01:07.177Z,270
2017-07-01T13:02:16.402Z,340
2017-07-01T13:03:25.620Z,270
2017-07-01T13:04:34.514Z,180
2017-07-01T13:05:43.406Z,210
2017-07-01T13:06:52.597Z,255
2017-07-01T13:08:01.491Z,200
2017-07-01T13:09:11.076Z,175
2017-07-01T13:10:20.297Z,205
2017-07-01T13:11:29.194Z,205
2017-07-01T13:12:38.515Z,170
2017-07-01T13:13:47.733Z,145
2017-07-01T13:14:56.952Z,120
2017-07-01T13:16:05.848Z,270
2017-07-01T13:17:15.063Z,375
2017-07-01T13:18:24.156Z,335
2017-07-01T13:19:33.046Z,395
2017-07-01T13:20:41.939Z,615
2017-07-01T13:21:51.157Z,455
2017-07-01T13:23:00.046Z,310
2017-07-01T13:24:09.892Z,260
2017-07-01T13:25:18.784Z,270
2017-07-01T13:26:27.998Z,280
2017-07-01T13:27:36.891Z,245
2017-07-01T13:28:46.106Z,230
2017-07-01T13:29:55.104Z,265
2017-07-01T13:31:03.991Z,270
2017-07-01T13:32:13.207Z,265
2017-07-01T13:33:22.095Z,280
2017-07-01T13:34:31.315Z,295
2017-07-01T13:35:40.458Z,310
2017-07-01T13:36:49.724Z,340
2017-07-01T13:37:58.614Z,400
2017-07-01T13:39:07.830Z,475
2017-07-01T13:40:16.721Z,550
2017-07-01T13:41:26.183Z,590
2017-07-01T13:42:35.418Z,595
2017-07-01T13:43:44.636Z,585
2017-07-01T13:44:54.176Z,565
2017-07-01T13:46:03.075Z,615
2017-07-01T13:47:12.070Z,705
2017-07-01T13:48:21.292Z,755
2017-07-01T13:49:30.845Z,755
2017-07-01T13:50:39.738Z,695
2017-07-01T13:51:48.627Z,585
2017-07-01T13:52:57.625Z,540
2017-07-01T13:54:06.521Z,530
2017-07-01T13:55:15.411Z,510
2017-07-01T13:56:24.955Z,470
2017-07-01T13:57:34.174Z,555
2017-07-01T13:58:43.638Z,530
2017-07-01T13:59:53.181Z,540
2017-07-01T14:01:02.399Z,535
2017-07-01T14:02:11.292Z,580
2017-07-01T14:03:20.511Z,545
2017-07-01T14:04:30.397Z,540
2017-07-01T14:05:39.827Z,535
2017-07-01T14:06:48.715Z,560
2017-07-01T14:07:57.932Z,590
2017-07-01T14:09:06.870Z,635
2017-07-01T14:10:15.965Z,665
2017-07-01T14:11:24.865Z,670
2017-07-01T14:12:34.133Z,660
2017-07-01T14:13:43.028Z,660
2017-07-01T14:14:51.925Z,650
2017-07-01T14:16:01.296Z,605
2017-07-01T14:17:10.512Z,435
2017-07-01T14:18:19.448Z,355
2017-07-01T14:19:28.345Z,370
2017-07-01T14:20:37.566Z,375
2017-07-01T14:21:46.931Z,340
2017-07-01T14:22:55.828Z,305
2017-07-01T14:24:04.723Z,255
2017-07-01T14:25:13.940Z,245
2017-07-01T14:26:23.484Z,275
2017-07-01T14:27:32.853Z,295
2017-07-01T14:28:41.746Z,300
2017-07-01T14:29:50.639Z,270
2017-07-01T14:30:59.533Z,260
2017-07-01T14:32:08.421Z,280
2017-07-01T14:33:17.794Z,290
2017-07-01T14:34:27.017Z,310
2017-07-01T14:35:35.910Z,365
2017-07-01T14:36:44.803Z,455
2017-07-01T14:37:54.027Z,620
2017-07-01T14:39:03.296Z,900
2017-07-01T14:40:12.512Z,1410
2017-07-01T14:41:21.409Z,2235
2017-07-01T14:42:30.307Z,1650
2017-07-01T14:43:39.201Z,1140
2017-07-01T14:44:48.098Z,1060
2017-07-01T14:45:57.317Z,1040
2017-07-01T14:47:06.540Z,1085
2017-07-01T14:48:15.801Z,1140
2017-07-01T14:49:25.022Z,1090
2017-07-01T14:50:34.394Z,1045
2017-07-01T14:51:43.621Z,1090
2017-07-01T14:52:52.514Z,2920
2017-07-01T14:54:01.735Z,3475
2017-07-01T14:55:10.634Z,1830
2017-07-01T14:56:19.582Z,1360
2017-07-01T14:57:28.481Z,1995
2017-07-01T14:58:37.380Z,2930
2017-07-01T14:59:46.603Z,3930
2017-07-01T15:00:55.856Z,1905
2017-07-01T15:02:04.909Z,1600
2017-07-01T15:03:14.784Z,1520
2017-07-01T15:04:23.685Z,2145
2017-07-01T15:05:32.586Z,2030
2017-07-01T15:06:41.812Z,2790
2017-07-01T15:07:51.343Z,3490
2017-07-01T15:09:00.572Z,2970
2017-07-01T15:10:09.808Z,2215
2017-07-01T15:11:18.717Z,2750
2017-07-01T15:12:27.618Z,2250
2017-07-01T15:13:37.007Z,1200
2017-07-01T15:14:46.237Z,1125
2017-07-01T15:15:55.469Z,830
2017-07-01T15:17:04.372Z,695
2017-07-01T15:18:13.618Z,615
2017-07-01T15:19:23.973Z,535
2017-07-01T15:20:32.873Z,605
2017-07-01T15:21:41.781Z,745
2017-07-01T15:22:50.682Z,770
2017-07-01T15:23:59.913Z,770
2017-07-01T15:25:09.250Z,755
2017-07-01T15:26:18.484Z,595
2017-07-01T15:27:27.384Z,475
2017-07-01T15:28:36.283Z,395
2017-07-01T15:29:45.510Z,360
2017-07-01T15:30:54.462Z,375
2017-07-01T15:32:03.686Z,360
2017-07-01T15:33:12.582Z,350
2017-07-01T15:34:21.808Z,350
2017-07-01T15:35:31.356Z,385
2017-07-01T15:36:40.905Z,410
2017-07-01T15:37:50.126Z,450
2017-07-01T15:38:59.066Z,470
2017-07-01T15:40:08.007Z,480
2017-07-01T15:41:16.915Z,450
2017-07-01T15:42:25.813Z,430
2017-07-01T15:43:34.715Z,380
2017-07-01T15:44:43.610Z,455
2017-07-01T15:45:52.831Z,695
2017-07-01T15:47:01.726Z,1400
2017-07-01T15:48:10.949Z,1170
2017-07-01T15:49:19.844Z,1150
2017-07-01T15:50:29.075Z,1345
2017-07-01T15:51:38.296Z,1335
2017-07-01T15:52:47.518Z,1660
2017-07-01T15:53:57.042Z,1660
2017-07-01T15:55:06.912Z,1190
2017-07-01T15:56:15.809Z,1085
2017-07-01T15:57:25.032Z,920
2017-07-01T15:58:34.257Z,775
2017-07-01T15:59:43.806Z,635
2017-07-01T16:00:53.026Z,515
2017-07-01T16:02:01.927Z,485
2017-07-01T16:03:11.154Z,500
2017-07-01T16:04:20.372Z,710
2017-07-01T16:05:29.420Z,690
2017-07-01T16:06:38.329Z,670
2017-07-01T16:07:47.221Z,680
2017-07-01T16:08:56.126Z,610